Terminal Aerodrome Forecast
Issued by NWS Grand Rapids, MI

Home | Current Version | Previous Version | Text Only | Print | Product List | Glossary On
Versions: 1 2 3 4 5 6 7 8 9 10 11 12 13 14 15 16 17 18 19 20 21 22 23
000
FTUS43 KGRR 211943 AAB
TAFGRR
TAF AMD
KGRR 211943Z 2120/2218 29012G21KT P6SM OVC050
     FM212300 31012KT P6SM -SHSN OVC035
     FM220300 32009KT P6SM BKN040=

USA.gov is the U.S. government's official web portal to all federal, state and local government web resources and services.